createdAt,value
2023-03-28T00:01:06.917Z,3.06
2023-03-28T00:03:39.977Z,3.00
2023-03-28T00:06:11.604Z,2.95
2023-03-28T00:08:41.103Z,2.71
2023-03-28T00:11:19.920Z,2.99
2023-03-28T00:13:49.362Z,2.94
2023-03-28T00:16:17.749Z,2.79
2023-03-28T00:18:47.699Z,2.80
2023-03-28T00:21:27.041Z,2.68
2023-03-28T00:24:02.034Z,2.71
2023-03-28T00:26:32.480Z,2.74
2023-03-28T00:29:02.948Z,2.80
2023-03-28T00:31:32.546Z,2.83
2023-03-28T00:34:02.486Z,2.88
2023-03-28T00:36:33.022Z,2.61
2023-03-28T00:39:06.631Z,2.61
2023-03-28T00:41:40.078Z,2.64
2023-03-28T00:44:44.171Z,2.66
2023-03-28T00:47:21.219Z,2.60
2023-03-28T00:49:53.087Z,2.68
2023-03-28T00:52:25.631Z,2.63
2023-03-28T00:54:57.694Z,2.55
2023-03-28T00:57:27.997Z,2.57
2023-03-28T00:59:56.971Z,2.56
2023-03-28T01:02:28.332Z,2.42
2023-03-28T01:05:01.405Z,2.16
2023-03-28T01:07:35.475Z,2.11
2023-03-28T01:10:05.329Z,2.05
2023-03-28T01:12:34.582Z,2.25
2023-03-28T01:15:04.386Z,2.32
2023-03-28T01:17:33.000Z,2.32
2023-03-28T01:20:18.294Z,2.43
2023-03-28T01:23:15.680Z,2.38
2023-03-28T01:26:28.947Z,2.48
2023-03-28T01:29:18.639Z,2.34
2023-03-28T01:32:30.062Z,2.37
2023-03-28T01:35:38.983Z,2.42
2023-03-28T01:38:15.595Z,2.42
2023-03-28T01:40:53.357Z,2.39
2023-03-28T01:43:31.170Z,2.40
2023-03-28T01:46:07.208Z,2.31
2023-03-28T01:48:45.437Z,2.49
2023-03-28T01:51:24.314Z,2.47
2023-03-28T01:54:00.764Z,2.48
2023-03-28T01:56:34.668Z,2.41
2023-03-28T01:59:10.619Z,2.30
2023-03-28T02:01:47.331Z,2.26
2023-03-28T02:04:21.405Z,2.31
2023-03-28T02:06:52.826Z,2.42
2023-03-28T02:09:25.203Z,2.39
2023-03-28T02:11:59.029Z,2.44
2023-03-28T02:14:31.534Z,2.53
2023-03-28T02:17:06.671Z,2.65
2023-03-28T02:19:39.120Z,2.65
2023-03-28T02:22:16.868Z,2.67
2023-03-28T02:24:50.647Z,2.72
2023-03-28T02:27:22.827Z,2.70
2023-03-28T02:29:54.776Z,2.72
2023-03-28T02:32:23.980Z,2.43
2023-03-28T02:34:55.939Z,2.74
2023-03-28T02:37:36.709Z,2.81
2023-03-28T02:40:20.264Z,2.72
2023-03-28T02:43:20.602Z,2.71
2023-03-28T02:46:08.432Z,2.74
2023-03-28T02:48:54.304Z,2.65
2023-03-28T02:51:31.823Z,2.73
2023-03-28T02:54:11.148Z,2.47
2023-03-28T02:56:51.270Z,2.72
2023-03-28T02:59:25.529Z,2.66
2023-03-28T03:01:54.258Z,2.59
2023-03-28T03:04:22.656Z,2.57
2023-03-28T03:06:51.111Z,2.69
2023-03-28T03:09:19.733Z,2.66
2023-03-28T03:11:51.833Z,2.65
2023-03-28T03:14:20.026Z,2.51
2023-03-28T03:16:49.093Z,2.42
2023-03-28T03:19:17.475Z,2.36
2023-03-28T03:21:45.789Z,2.30
2023-03-28T03:24:14.479Z,2.37
2023-03-28T03:26:43.275Z,2.40
2023-03-28T03:29:13.202Z,2.43
2023-03-28T03:31:44.974Z,2.41
2023-03-28T03:34:13.756Z,2.50
2023-03-28T03:36:42.862Z,2.42
2023-03-28T03:39:11.178Z,2.41
2023-03-28T03:41:39.565Z,2.38
2023-03-28T03:44:08.155Z,2.35
2023-03-28T03:46:37.790Z,2.38
2023-03-28T03:49:06.060Z,2.37
2023-03-28T03:51:34.629Z,2.09
2023-03-28T03:54:02.729Z,2.29
2023-03-28T03:56:30.893Z,2.42
2023-03-28T03:58:59.260Z,2.22
2023-03-28T04:01:30.424Z,1.87
2023-03-28T04:04:00.441Z,2.13
2023-03-28T04:06:29.838Z,2.13
2023-03-28T04:08:58.268Z,2.11
2023-03-28T04:11:27.019Z,2.18
2023-03-28T04:13:56.509Z,2.17
2023-03-28T04:16:24.983Z,2.14
2023-03-28T04:18:53.672Z,2.10
2023-03-28T04:21:27.604Z,2.10
2023-03-28T04:23:57.342Z,2.07
2023-03-28T04:26:27.143Z,2.06
2023-03-28T04:28:55.805Z,2.12
2023-03-28T04:31:29.921Z,2.03
2023-03-28T04:34:00.897Z,2.03
2023-03-28T04:36:31.646Z,2.07
2023-03-28T04:39:02.502Z,2.12
2023-03-28T04:41:32.386Z,2.19
2023-03-28T04:44:00.486Z,2.08
2023-03-28T04:46:29.692Z,2.10
2023-03-28T04:48:59.443Z,2.16
2023-03-28T04:51:30.363Z,2.02
2023-03-28T04:54:03.295Z,2.08
2023-03-28T04:56:31.418Z,1.90
2023-03-28T04:58:59.493Z,2.07
2023-03-28T05:01:31.189Z,1.99
2023-03-28T05:03:59.337Z,2.02
2023-03-28T05:06:27.905Z,2.05
2023-03-28T05:08:57.065Z,2.17
2023-03-28T05:11:26.919Z,2.09
2023-03-28T05:13:55.141Z,2.12
2023-03-28T05:16:23.643Z,2.12
2023-03-28T05:18:52.881Z,2.14
2023-03-28T05:21:21.008Z,2.20
2023-03-28T05:23:51.377Z,1.99
2023-03-28T05:26:21.202Z,1.98
2023-03-28T05:28:51.298Z,1.99
2023-03-28T05:31:19.560Z,1.85
2023-03-28T05:33:47.891Z,1.98
2023-03-28T05:36:16.490Z,2.04
2023-03-28T05:38:44.670Z,1.91
2023-03-28T05:41:12.775Z,1.97
2023-03-28T05:43:41.494Z,2.03
2023-03-28T05:46:11.595Z,2.12
2023-03-28T05:48:40.230Z,2.09
2023-03-28T05:51:08.688Z,2.10
2023-03-28T05:53:36.910Z,2.12
2023-03-28T05:56:05.119Z,2.00
2023-03-28T05:58:33.389Z,2.11
2023-03-28T06:01:03.051Z,2.24
2023-03-28T06:03:32.905Z,2.19
2023-03-28T06:06:02.067Z,2.32
2023-03-28T06:08:30.257Z,2.18
2023-03-28T06:11:02.360Z,2.27
2023-03-28T06:13:31.347Z,2.19
2023-03-28T06:15:59.423Z,2.36
2023-03-28T06:18:27.873Z,2.41
2023-03-28T06:20:57.884Z,2.44
2023-03-28T06:23:26.812Z,2.48
2023-03-28T06:25:55.452Z,2.44
2023-03-28T06:28:23.938Z,2.28
2023-03-28T06:30:54.685Z,2.37
2023-03-28T06:33:23.184Z,2.34
2023-03-28T06:35:51.695Z,2.46
2023-03-28T06:38:21.418Z,2.40
2023-03-28T06:40:49.775Z,2.47
2023-03-28T06:43:17.926Z,2.49
2023-03-28T06:45:46.114Z,2.52
2023-03-28T06:48:14.581Z,2.58
2023-03-28T06:50:50.068Z,2.70
2023-03-28T06:53:18.871Z,2.57
2023-03-28T06:55:51.114Z,2.65
2023-03-28T06:58:19.712Z,2.58
2023-03-28T07:00:48.628Z,2.51
2023-03-28T07:03:16.846Z,2.47
2023-03-28T07:05:45.180Z,2.50
2023-03-28T07:08:14.601Z,2.48
2023-03-28T07:10:43.989Z,2.49
2023-03-28T07:13:14.320Z,2.58
2023-03-28T07:15:42.627Z,2.69
2023-03-28T07:18:11.359Z,2.70
2023-03-28T07:20:40.728Z,2.79
2023-03-28T07:23:08.985Z,2.76
2023-03-28T07:25:37.545Z,2.72
2023-03-28T07:28:06.171Z,2.78
2023-03-28T07:30:36.830Z,2.79
2023-03-28T07:33:15.353Z,2.83
2023-03-28T07:35:46.946Z,2.78
2023-03-28T07:38:15.135Z,2.66
2023-03-28T07:40:44.404Z,2.95
2023-03-28T07:43:12.729Z,2.95
2023-03-28T07:45:42.202Z,2.92
2023-03-28T07:48:10.696Z,3.26
2023-03-28T07:50:39.122Z,3.15
2023-03-28T07:53:07.320Z,3.14
2023-03-28T07:58:10.027Z,3.15
2023-03-28T08:00:38.404Z,3.25
2023-03-28T08:03:09.161Z,3.36
2023-03-28T08:05:38.048Z,3.57
2023-03-28T08:08:07.366Z,3.63
2023-03-28T08:10:36.480Z,3.57
2023-03-28T08:13:05.276Z,3.50
2023-03-28T08:15:33.749Z,3.75
2023-03-28T08:18:01.930Z,3.57
2023-03-28T08:20:31.620Z,3.55
2023-03-28T08:22:59.889Z,3.72
2023-03-28T08:25:28.477Z,3.65
2023-03-28T08:27:56.895Z,3.67
2023-03-28T08:30:25.413Z,3.66
2023-03-28T08:32:53.992Z,3.47
2023-03-28T08:35:22.345Z,3.81
2023-03-28T08:37:52.906Z,3.97
2023-03-28T08:40:22.261Z,3.72
2023-03-28T08:43:08.235Z,4.13
2023-03-28T08:45:47.690Z,4.07
2023-03-28T08:48:21.397Z,4.36
2023-03-28T08:50:54.689Z,5.24
2023-03-28T08:53:34.593Z,6.21
2023-03-28T08:56:06.336Z,6.95
2023-03-28T08:58:40.082Z,7.08
2023-03-28T09:01:11.664Z,6.32
2023-03-28T09:03:40.225Z,5.98
2023-03-28T09:06:21.023Z,5.99
2023-03-28T09:09:22.515Z,6.29
2023-03-28T09:12:04.047Z,6.53
2023-03-28T09:15:06.624Z,5.94
2023-03-28T09:17:45.882Z,6.29
2023-03-28T09:20:21.488Z,6.13
2023-03-28T09:23:06.265Z,6.12
2023-03-28T09:25:40.808Z,6.12
2023-03-28T09:28:20.254Z,5.97
2023-03-28T09:30:52.144Z,6.24
2023-03-28T09:33:25.664Z,6.08
2023-03-28T09:35:57.301Z,5.99
2023-03-28T09:38:31.253Z,5.93
2023-03-28T09:41:08.439Z,5.91
2023-03-28T09:43:41.212Z,6.04
2023-03-28T09:46:12.711Z,5.54
2023-03-28T09:48:41.327Z,6.06
2023-03-28T09:51:17.069Z,6.25
2023-03-28T09:53:46.597Z,6.20
2023-03-28T09:56:27.741Z,6.34
2023-03-28T09:58:57.777Z,6.29
2023-03-28T10:01:33.080Z,6.04
2023-03-28T10:04:01.764Z,6.37
2023-03-28T10:06:32.088Z,6.47
2023-03-28T10:09:12.133Z,6.10
2023-03-28T10:11:52.292Z,5.97
2023-03-28T10:14:35.131Z,6.29
2023-03-28T10:17:07.613Z,6.20
2023-03-28T10:19:39.490Z,6.25
2023-03-28T10:22:09.732Z,6.31
2023-03-28T10:24:39.832Z,6.04
2023-03-28T10:27:19.570Z,6.47
2023-03-28T10:29:48.652Z,6.23
2023-03-28T10:32:26.541Z,6.37
2023-03-28T10:35:03.556Z,6.41
2023-03-28T10:37:33.871Z,6.16
2023-03-28T10:40:07.161Z,6.31
2023-03-28T10:42:45.239Z,5.95
2023-03-28T10:45:23.894Z,6.27
2023-03-28T10:47:54.831Z,6.19
2023-03-28T10:50:37.328Z,6.56
2023-03-28T10:53:21.924Z,6.41
2023-03-28T10:56:03.817Z,6.07
2023-03-28T10:58:37.893Z,6.17
2023-03-28T11:01:13.247Z,6.15
2023-03-28T11:03:57.439Z,6.15
2023-03-28T11:06:33.819Z,6.22
2023-03-28T11:09:10.917Z,6.09
2023-03-28T11:11:53.824Z,6.12
2023-03-28T11:14:36.817Z,6.13
2023-03-28T11:17:14.486Z,6.32
2023-03-28T11:20:07.201Z,6.34
2023-03-28T11:22:55.499Z,6.66
2023-03-28T11:25:44.066Z,6.71
2023-03-28T11:28:22.791Z,6.85
2023-03-28T11:30:57.527Z,6.68
2023-03-28T11:33:33.450Z,6.76
2023-03-28T11:36:08.652Z,6.56
2023-03-28T11:38:40.713Z,6.55
2023-03-28T11:41:14.456Z,6.49
2023-03-28T11:43:47.364Z,6.61
2023-03-28T11:46:22.281Z,6.77
2023-03-28T11:48:54.629Z,7.11
2023-03-28T11:51:29.203Z,6.86
2023-03-28T11:54:02.548Z,6.64
2023-03-28T11:56:44.766Z,6.52
2023-03-28T11:59:19.532Z,6.73
2023-03-28T12:01:55.707Z,6.93
2023-03-28T12:04:29.707Z,7.00
2023-03-28T12:07:09.121Z,6.90
2023-03-28T12:09:53.704Z,7.10
2023-03-28T12:12:26.647Z,6.68
2023-03-28T12:15:00.593Z,7.08
2023-03-28T12:17:35.282Z,7.58
2023-03-28T12:20:06.769Z,7.53
2023-03-28T12:22:41.611Z,7.70
2023-03-28T12:25:15.678Z,7.25
2023-03-28T12:27:57.161Z,6.88
2023-03-28T12:30:30.033Z,7.39
2023-03-28T12:33:11.953Z,7.14
2023-03-28T12:35:48.655Z,7.20
2023-03-28T12:38:40.126Z,6.95
2023-03-28T12:41:10.414Z,7.18
2023-03-28T12:43:47.159Z,7.25
2023-03-28T12:46:19.675Z,6.69
2023-03-28T12:48:55.595Z,7.08
2023-03-28T12:51:31.443Z,7.33
2023-03-28T12:54:08.771Z,7.55
2023-03-28T12:56:37.263Z,7.63
2023-03-28T12:59:43.297Z,8.11
2023-03-28T13:02:18.332Z,7.58
2023-03-28T13:04:57.078Z,7.28
2023-03-28T13:07:35.380Z,7.75
2023-03-28T13:10:13.698Z,7.69
2023-03-28T13:13:03.449Z,7.71
2023-03-28T13:15:34.026Z,7.28
2023-03-28T13:18:31.932Z,7.27
2023-03-28T13:21:04.601Z,7.69
2023-03-28T13:23:38.830Z,7.70
2023-03-28T13:26:08.277Z,7.83
2023-03-28T13:28:44.533Z,8.05
2023-03-28T13:31:21.218Z,8.15
2023-03-28T13:33:54.134Z,6.76
2023-03-28T13:36:27.200Z,6.92
2023-03-28T13:39:23.501Z,7.54
2023-03-28T13:41:57.993Z,8.04
2023-03-28T13:44:42.068Z,7.65
2023-03-28T13:47:17.967Z,7.30
2023-03-28T13:49:49.650Z,7.20
2023-03-28T13:52:22.271Z,7.20
2023-03-28T13:54:54.486Z,7.52
2023-03-28T13:57:26.161Z,7.53
2023-03-28T13:59:56.917Z,7.65
2023-03-28T14:02:36.705Z,7.51
2023-03-28T14:05:22.283Z,7.69
2023-03-28T14:07:56.514Z,7.62
2023-03-28T14:10:30.720Z,7.70
2023-03-28T14:13:02.424Z,7.46
2023-03-28T14:15:38.095Z,7.59
2023-03-28T14:18:07.136Z,7.44
2023-03-28T14:20:36.290Z,7.66
2023-03-28T14:23:07.133Z,7.37
2023-03-28T14:25:35.865Z,7.60
2023-03-28T14:28:09.174Z,7.65
2023-03-28T14:30:43.070Z,7.65
2023-03-28T14:33:20.953Z,7.47
2023-03-28T14:35:58.811Z,7.45
2023-03-28T14:38:33.656Z,7.31
2023-03-28T14:41:13.866Z,7.27
2023-03-28T14:43:42.609Z,7.25
2023-03-28T14:46:12.718Z,7.03
2023-03-28T14:48:43.751Z,7.24
2023-03-28T14:51:15.068Z,7.12
2023-03-28T14:53:47.853Z,6.64
2023-03-28T14:56:19.913Z,7.08
2023-03-28T14:58:50.140Z,6.90
2023-03-28T15:01:23.268Z,6.97
2023-03-28T15:03:55.037Z,7.18
2023-03-28T15:06:24.895Z,7.47
2023-03-28T15:08:56.776Z,7.45
2023-03-28T15:11:29.958Z,7.49
2023-03-28T15:14:04.393Z,7.09
2023-03-28T15:16:38.170Z,7.33
2023-03-28T15:19:10.135Z,7.47
2023-03-28T15:21:41.699Z,7.11
2023-03-28T15:24:13.996Z,7.08
2023-03-28T15:26:45.449Z,7.47
2023-03-28T15:29:18.694Z,7.61
2023-03-28T15:31:47.834Z,7.22
2023-03-28T15:34:22.047Z,7.08
2023-03-28T15:36:54.584Z,7.33
2023-03-28T15:39:27.379Z,7.14
2023-03-28T15:42:00.366Z,6.68
2023-03-28T15:44:31.802Z,6.45
2023-03-28T15:47:02.862Z,6.65
2023-03-28T15:49:36.778Z,6.73
2023-03-28T15:52:09.415Z,6.98
2023-03-28T15:54:45.436Z,7.08
2023-03-28T15:57:15.886Z,6.95
2023-03-28T15:59:51.226Z,7.02
2023-03-28T16:02:33.255Z,7.21
2023-03-28T16:05:03.391Z,7.22
2023-03-28T16:07:37.386Z,7.38
2023-03-28T16:10:08.038Z,7.55
2023-03-28T16:12:36.476Z,7.65
2023-03-28T16:15:05.688Z,7.71
2023-03-28T16:17:34.260Z,7.54
2023-03-28T16:20:02.584Z,7.66
2023-03-28T16:22:31.420Z,7.76
2023-03-28T16:24:59.859Z,7.69
2023-03-28T16:27:30.058Z,7.75
2023-03-28T16:29:58.750Z,7.57
2023-03-28T16:32:26.998Z,7.61
2023-03-28T16:34:55.563Z,7.75
2023-03-28T16:37:23.992Z,7.78
2023-03-28T16:39:52.422Z,7.84
2023-03-28T16:42:21.784Z,7.83
2023-03-28T16:44:51.675Z,7.84
2023-03-28T16:47:32.226Z,7.79
2023-03-28T16:50:00.446Z,7.88
2023-03-28T16:52:30.073Z,7.98
2023-03-28T16:54:58.437Z,7.94
2023-03-28T16:57:27.545Z,7.80
2023-03-28T16:59:58.487Z,7.63
2023-03-28T17:02:27.025Z,7.70
2023-03-28T17:04:55.416Z,7.84
2023-03-28T17:10:55.422Z,7.64
2023-03-28T17:13:26.117Z,7.54
2023-03-28T17:15:56.749Z,7.66
2023-03-28T17:18:25.080Z,7.60
2023-03-28T17:21:01.573Z,7.57
2023-03-28T17:23:29.914Z,7.75
2023-03-28T17:26:03.277Z,7.68
2023-03-28T17:28:32.502Z,7.79
2023-03-28T17:31:07.088Z,7.93
2023-03-28T17:33:35.715Z,7.84
2023-03-28T17:36:15.398Z,7.91
2023-03-28T17:38:44.166Z,7.95
2023-03-28T17:41:12.694Z,7.77
2023-03-28T17:43:44.904Z,7.57
2023-03-28T17:46:15.154Z,7.55
2023-03-28T17:48:51.583Z,7.59
2023-03-28T17:51:20.041Z,7.58
2023-03-28T17:53:48.692Z,7.52
2023-03-28T17:56:17.666Z,7.50
2023-03-28T17:58:46.720Z,7.40
2023-03-28T18:01:24.290Z,7.28
2023-03-28T18:03:54.285Z,7.36
2023-03-28T18:06:22.907Z,7.30
2023-03-28T18:08:51.824Z,7.50
2023-03-28T18:11:20.388Z,7.50
2023-03-28T18:13:48.706Z,7.37
2023-03-28T18:16:19.255Z,7.36
2023-03-28T18:18:48.645Z,7.33
2023-03-28T18:21:20.012Z,7.37
2023-03-28T18:23:48.333Z,7.50
2023-03-28T18:26:21.650Z,7.56
2023-03-28T18:28:49.980Z,7.45
2023-03-28T18:31:28.197Z,7.46
2023-03-28T18:33:57.844Z,7.32
2023-03-28T18:36:26.855Z,7.37
2023-03-28T18:38:56.808Z,7.22
2023-03-28T18:41:27.100Z,6.92
2023-03-28T18:43:55.805Z,6.98
2023-03-28T18:46:26.996Z,7.01
2023-03-28T18:48:56.077Z,7.05
2023-03-28T18:51:25.903Z,7.18
2023-03-28T18:53:54.866Z,7.10
2023-03-28T18:56:23.636Z,7.09
2023-03-28T18:58:52.455Z,7.16
2023-03-28T19:01:23.352Z,7.16
2023-03-28T19:03:53.145Z,7.13
2023-03-28T19:06:23.805Z,7.04
2023-03-28T19:08:52.256Z,6.92
2023-03-28T19:11:21.505Z,7.01
2023-03-28T19:13:50.581Z,6.94
2023-03-28T19:16:19.970Z,6.72
2023-03-28T19:18:49.039Z,6.76
2023-03-28T19:21:20.688Z,6.92
2023-03-28T19:23:50.091Z,6.77
2023-03-28T19:26:23.032Z,6.89
2023-03-28T19:28:51.773Z,7.03
2023-03-28T19:31:22.719Z,7.11
2023-03-28T19:33:51.125Z,7.15
2023-03-28T19:36:24.434Z,6.98
2023-03-28T19:38:52.660Z,6.78
2023-03-28T19:41:23.561Z,6.73
2023-03-28T19:43:52.452Z,6.71
2023-03-28T19:46:26.818Z,6.77
2023-03-28T19:48:59.487Z,6.64
2023-03-28T19:51:30.149Z,6.59
2023-03-28T19:53:58.512Z,6.61
2023-03-28T19:56:27.324Z,6.52
2023-03-28T19:58:55.723Z,6.75
2023-03-28T20:01:23.962Z,6.73
2023-03-28T20:03:53.467Z,6.73
2023-03-28T20:06:23.389Z,6.74
2023-03-28T20:08:53.424Z,6.76
2023-03-28T20:11:22.500Z,6.78
2023-03-28T20:13:50.895Z,6.76
2023-03-28T20:16:19.127Z,6.74
2023-03-28T20:18:48.503Z,6.69
2023-03-28T20:21:16.775Z,6.67
2023-03-28T20:23:44.873Z,6.63
2023-03-28T20:26:16.590Z,6.64
2023-03-28T20:28:46.910Z,6.67
2023-03-28T20:31:15.083Z,6.69
2023-03-28T20:33:43.453Z,6.66
2023-03-28T20:36:12.228Z,6.60
2023-03-28T20:38:41.248Z,6.61
2023-03-28T20:41:15.359Z,6.62
2023-03-28T20:43:47.840Z,6.75
2023-03-28T20:46:19.242Z,6.78
2023-03-28T20:48:53.094Z,6.74
2023-03-28T20:51:23.706Z,6.75
2023-03-28T20:53:54.882Z,6.82
2023-03-28T20:56:26.297Z,6.90
2023-03-28T20:58:55.512Z,6.86
2023-03-28T21:01:28.091Z,6.95
2023-03-28T21:04:00.052Z,6.98
2023-03-28T21:06:30.733Z,6.96
2023-03-28T21:09:00.923Z,7.01
2023-03-28T21:11:32.305Z,6.97
2023-03-28T21:14:02.201Z,6.84
2023-03-28T21:16:31.879Z,6.83
2023-03-28T21:19:00.470Z,6.94
2023-03-28T21:21:30.090Z,7.04
2023-03-28T21:23:58.615Z,7.05
2023-03-28T21:26:29.256Z,6.96
2023-03-28T21:28:59.625Z,7.06
2023-03-28T21:31:30.935Z,7.22
2023-03-28T21:34:00.975Z,7.18
2023-03-28T21:36:29.420Z,7.21
2023-03-28T21:38:59.453Z,7.23
2023-03-28T21:41:28.464Z,7.04
2023-03-28T21:43:59.056Z,7.18
2023-03-28T21:46:29.242Z,6.90
2023-03-28T21:48:57.730Z,6.96
2023-03-28T21:51:26.046Z,6.84
2023-03-28T21:53:54.398Z,6.91
2023-03-28T21:56:23.124Z,6.82
2023-03-28T21:58:52.011Z,6.86
2023-03-28T22:01:21.091Z,6.98
2023-03-28T22:03:51.119Z,6.97
2023-03-28T22:06:20.324Z,6.69
2023-03-28T22:08:52.616Z,6.91
2023-03-28T22:11:27.627Z,6.86
2023-03-28T22:14:02.833Z,7.00
2023-03-28T22:16:32.780Z,7.16
2023-03-28T22:19:02.952Z,7.14
2023-03-28T22:21:31.708Z,6.96
2023-03-28T22:24:02.673Z,6.96
2023-03-28T22:26:31.264Z,6.87
2023-03-28T22:29:00.461Z,6.91
2023-03-28T22:31:29.489Z,7.09
2023-03-28T22:33:58.140Z,7.10
2023-03-28T22:36:27.966Z,7.17
2023-03-28T22:38:57.072Z,7.10
2023-03-28T22:41:27.529Z,7.21
2023-03-28T22:43:55.686Z,7.07
2023-03-28T22:46:23.976Z,7.18
2023-03-28T22:48:54.488Z,6.85
2023-03-28T22:51:28.425Z,6.87
2023-03-28T22:54:02.026Z,6.83
2023-03-28T22:56:30.867Z,6.83
2023-03-28T22:59:01.267Z,6.96
2023-03-28T23:01:30.302Z,6.88
2023-03-28T23:03:58.798Z,7.16
2023-03-28T23:06:27.233Z,7.22
2023-03-28T23:08:55.648Z,7.29
2023-03-28T23:11:25.457Z,7.33
2023-03-28T23:13:53.528Z,7.31
2023-03-28T23:16:22.077Z,7.30
2023-03-28T23:18:50.921Z,7.06
2023-03-28T23:21:19.101Z,7.04
2023-03-28T23:23:47.599Z,7.31
2023-03-28T23:26:15.920Z,7.37
2023-03-28T23:28:45.768Z,7.51
2023-03-28T23:31:14.201Z,7.61
2023-03-28T23:33:44.438Z,7.59
2023-03-28T23:36:14.250Z,7.47
2023-03-28T23:38:43.080Z,7.55
2023-03-28T23:41:11.352Z,7.49
2023-03-28T23:43:39.602Z,7.41
2023-03-28T23:46:09.220Z,7.32
2023-03-28T23:48:37.709Z,7.55
2023-03-28T23:51:06.715Z,7.62
2023-03-28T23:53:35.250Z,7.66
2023-03-28T23:56:04.186Z,7.54
2023-03-28T23:58:32.348Z,7.65
